sensor_id;sensor_type;location;lat;lon;timestamp;P1;durP1;ratioP1;P2;durP2;ratioP2
15256;SDS011;7731;50.720;6.912;2024-03-17T00:00:08;5.77;;;5.27;;
15256;SDS011;7731;50.720;6.912;2024-03-17T00:02:40;5.97;;;5.37;;
15256;SDS011;7731;50.720;6.912;2024-03-17T00:05:07;7.93;;;6.33;;
15256;SDS011;7731;50.720;6.912;2024-03-17T00:07:36;9.77;;;7.83;;
15256;SDS011;7731;50.720;6.912;2024-03-17T00:10:05;8.93;;;7.20;;
15256;SDS011;7731;50.720;6.912;2024-03-17T00:12:38;8.00;;;7.20;;
15256;SDS011;7731;50.720;6.912;2024-03-17T00:15:05;7.20;;;6.50;;
15256;SDS011;7731;50.720;6.912;2024-03-17T00:17:37;7.03;;;6.07;;
15256;SDS011;7731;50.720;6.912;2024-03-17T00:20:05;6.33;;;5.67;;
15256;SDS011;7731;50.720;6.912;2024-03-17T00:22:44;6.67;;;6.07;;
15256;SDS011;7731;50.720;6.912;2024-03-17T00:25:12;6.77;;;6.03;;
15256;SDS011;7731;50.720;6.912;2024-03-17T00:27:46;6.93;;;6.13;;
15256;SDS011;7731;50.720;6.912;2024-03-17T00:30:13;6.33;;;5.73;;
15256;SDS011;7731;50.720;6.912;2024-03-17T00:32:43;6.27;;;5.63;;
15256;SDS011;7731;50.720;6.912;2024-03-17T00:35:10;7.67;;;5.80;;
15256;SDS011;7731;50.720;6.912;2024-03-17T00:37:46;5.87;;;5.20;;
15256;SDS011;7731;50.720;6.912;2024-03-17T00:40:12;6.20;;;5.00;;
15256;SDS011;7731;50.720;6.912;2024-03-17T00:42:45;5.10;;;4.70;;
15256;SDS011;7731;50.720;6.912;2024-03-17T00:45:11;4.97;;;4.47;;
15256;SDS011;7731;50.720;6.912;2024-03-17T00:47:41;5.10;;;4.60;;
15256;SDS011;7731;50.720;6.912;2024-03-17T00:50:10;4.83;;;4.40;;
15256;SDS011;7731;50.720;6.912;2024-03-17T00:52:39;5.00;;;4.50;;
15256;SDS011;7731;50.720;6.912;2024-03-17T00:55:06;5.60;;;4.77;;
15256;SDS011;7731;50.720;6.912;2024-03-17T00:57:37;9.10;;;4.60;;
15256;SDS011;7731;50.720;6.912;2024-03-17T01:00:07;5.10;;;4.60;;
15256;SDS011;7731;50.720;6.912;2024-03-17T01:02:38;5.40;;;4.90;;
15256;SDS011;7731;50.720;6.912;2024-03-17T01:05:05;5.70;;;4.63;;
15256;SDS011;7731;50.720;6.912;2024-03-17T01:07:36;4.70;;;4.23;;
15256;SDS011;7731;50.720;6.912;2024-03-17T01:10:03;4.73;;;4.33;;
15256;SDS011;7731;50.720;6.912;2024-03-17T01:12:34;4.50;;;4.10;;
15256;SDS011;7731;50.720;6.912;2024-03-17T01:15:02;4.53;;;4.13;;
15256;SDS011;7731;50.720;6.912;2024-03-17T01:17:37;5.40;;;4.23;;
15256;SDS011;7731;50.720;6.912;2024-03-17T01:20:04;4.60;;;4.20;;
15256;SDS011;7731;50.720;6.912;2024-03-17T01:22:35;4.70;;;4.23;;
15256;SDS011;7731;50.720;6.912;2024-03-17T01:25:02;4.67;;;4.27;;
15256;SDS011;7731;50.720;6.912;2024-03-17T01:27:34;4.60;;;4.20;;
15256;SDS011;7731;50.720;6.912;2024-03-17T01:30:01;4.50;;;4.10;;
15256;SDS011;7731;50.720;6.912;2024-03-17T01:32:33;4.70;;;4.20;;
15256;SDS011;7731;50.720;6.912;2024-03-17T01:35:00;4.53;;;4.00;;
15256;SDS011;7731;50.720;6.912;2024-03-17T01:37:29;4.80;;;4.27;;
15256;SDS011;7731;50.720;6.912;2024-03-17T01:39:57;5.10;;;4.60;;
15256;SDS011;7731;50.720;6.912;2024-03-17T01:42:26;4.20;;;3.80;;
15256;SDS011;7731;50.720;6.912;2024-03-17T01:44:54;5.37;;;4.23;;
15256;SDS011;7731;50.720;6.912;2024-03-17T01:47:23;4.10;;;3.73;;
15256;SDS011;7731;50.720;6.912;2024-03-17T01:49:58;4.97;;;3.83;;
15256;SDS011;7731;50.720;6.912;2024-03-17T01:52:28;5.97;;;4.30;;
15256;SDS011;7731;50.720;6.912;2024-03-17T01:54:55;4.23;;;3.83;;
15256;SDS011;7731;50.720;6.912;2024-03-17T01:57:24;4.20;;;3.80;;
15256;SDS011;7731;50.720;6.912;2024-03-17T01:59:51;3.80;;;3.50;;
15256;SDS011;7731;50.720;6.912;2024-03-17T02:02:21;4.43;;;3.60;;
15256;SDS011;7731;50.720;6.912;2024-03-17T02:04:50;4.47;;;3.73;;
15256;SDS011;7731;50.720;6.912;2024-03-17T02:07:19;5.10;;;3.67;;
15256;SDS011;7731;50.720;6.912;2024-03-17T02:09:52;5.80;;;3.87;;
15256;SDS011;7731;50.720;6.912;2024-03-17T02:12:18;3.83;;;3.40;;
15256;SDS011;7731;50.720;6.912;2024-03-17T02:14:48;3.77;;;3.47;;
15256;SDS011;7731;50.720;6.912;2024-03-17T02:17:16;4.17;;;3.77;;
15256;SDS011;7731;50.720;6.912;2024-03-17T02:19:46;6.13;;;3.60;;
15256;SDS011;7731;50.720;6.912;2024-03-17T02:22:15;5.07;;;4.00;;
15256;SDS011;7731;50.720;6.912;2024-03-17T02:24:45;3.73;;;3.40;;
15256;SDS011;7731;50.720;6.912;2024-03-17T02:27:12;4.13;;;3.80;;
15256;SDS011;7731;50.720;6.912;2024-03-17T02:29:41;4.33;;;3.93;;
15256;SDS011;7731;50.720;6.912;2024-03-17T02:32:09;5.97;;;4.57;;
15256;SDS011;7731;50.720;6.912;2024-03-17T02:34:38;4.30;;;3.90;;
15256;SDS011;7731;50.720;6.912;2024-03-17T02:37:06;3.97;;;3.60;;
15256;SDS011;7731;50.720;6.912;2024-03-17T02:39:39;3.87;;;3.50;;
15256;SDS011;7731;50.720;6.912;2024-03-17T02:42:07;4.50;;;4.10;;
15256;SDS011;7731;50.720;6.912;2024-03-17T02:44:38;4.47;;;3.40;;
15256;SDS011;7731;50.720;6.912;2024-03-17T02:47:07;3.70;;;3.40;;
15256;SDS011;7731;50.720;6.912;2024-03-17T02:49:40;3.70;;;3.40;;
15256;SDS011;7731;50.720;6.912;2024-03-17T02:52:15;3.90;;;3.50;;
15256;SDS011;7731;50.720;6.912;2024-03-17T02:54:47;3.70;;;3.40;;
15256;SDS011;7731;50.720;6.912;2024-03-17T02:57:18;3.90;;;3.50;;
15256;SDS011;7731;50.720;6.912;2024-03-17T02:59:50;3.90;;;3.60;;
15256;SDS011;7731;50.720;6.912;2024-03-17T03:02:19;4.00;;;3.63;;
15256;SDS011;7731;50.720;6.912;2024-03-17T03:04:50;3.90;;;3.50;;
15256;SDS011;7731;50.720;6.912;2024-03-17T03:07:19;4.27;;;3.60;;
15256;SDS011;7731;50.720;6.912;2024-03-17T03:09:51;5.57;;;3.50;;
15256;SDS011;7731;50.720;6.912;2024-03-17T03:12:23;4.70;;;4.20;;
15256;SDS011;7731;50.720;6.912;2024-03-17T03:14:52;3.43;;;3.13;;
15256;SDS011;7731;50.720;6.912;2024-03-17T03:17:21;4.13;;;3.73;;
15256;SDS011;7731;50.720;6.912;2024-03-17T03:19:50;4.73;;;3.33;;
15256;SDS011;7731;50.720;6.912;2024-03-17T03:22:21;4.10;;;3.70;;
15256;SDS011;7731;50.720;6.912;2024-03-17T03:24:54;4.47;;;3.53;;
15256;SDS011;7731;50.720;6.912;2024-03-17T03:27:23;5.13;;;3.70;;
15256;SDS011;7731;50.720;6.912;2024-03-17T03:29:52;4.07;;;3.50;;
15256;SDS011;7731;50.720;6.912;2024-03-17T03:32:21;4.10;;;3.63;;
15256;SDS011;7731;50.720;6.912;2024-03-17T03:34:51;4.20;;;3.73;;
15256;SDS011;7731;50.720;6.912;2024-03-17T03:37:21;4.00;;;3.70;;
15256;SDS011;7731;50.720;6.912;2024-03-17T03:39:52;4.40;;;4.00;;
15256;SDS011;7731;50.720;6.912;2024-03-17T03:42:24;3.93;;;3.60;;
15256;SDS011;7731;50.720;6.912;2024-03-17T03:44:54;3.70;;;3.40;;
15256;SDS011;7731;50.720;6.912;2024-03-17T03:47:25;4.93;;;4.20;;
15256;SDS011;7731;50.720;6.912;2024-03-17T03:49:54;5.00;;;3.90;;
15256;SDS011;7731;50.720;6.912;2024-03-17T03:52:26;4.27;;;3.87;;
15256;SDS011;7731;50.720;6.912;2024-03-17T03:54:57;4.40;;;3.93;;
15256;SDS011;7731;50.720;6.912;2024-03-17T03:57:28;4.63;;;3.83;;
15256;SDS011;7731;50.720;6.912;2024-03-17T03:59:57;3.77;;;3.43;;
15256;SDS011;7731;50.720;6.912;2024-03-17T04:02:31;3.80;;;3.50;;
15256;SDS011;7731;50.720;6.912;2024-03-17T04:05:03;5.23;;;3.37;;
15256;SDS011;7731;50.720;6.912;2024-03-17T04:07:37;3.83;;;3.53;;
15256;SDS011;7731;50.720;6.912;2024-03-17T04:10:11;3.33;;;3.00;;
15256;SDS011;7731;50.720;6.912;2024-03-17T04:12:44;4.00;;;3.00;;
15256;SDS011;7731;50.720;6.912;2024-03-17T04:15:13;3.37;;;2.90;;
15256;SDS011;7731;50.720;6.912;2024-03-17T04:17:42;3.17;;;2.83;;
15256;SDS011;7731;50.720;6.912;2024-03-17T04:20:12;3.70;;;3.23;;
15256;SDS011;7731;50.720;6.912;2024-03-17T04:22:42;2.93;;;2.60;;
15256;SDS011;7731;50.720;6.912;2024-03-17T04:25:14;2.80;;;2.50;;
15256;SDS011;7731;50.720;6.912;2024-03-17T04:27:43;4.10;;;2.50;;
15256;SDS011;7731;50.720;6.912;2024-03-17T04:30:13;2.70;;;2.23;;
15256;SDS011;7731;50.720;6.912;2024-03-17T04:32:42;3.20;;;2.43;;
15256;SDS011;7731;50.720;6.912;2024-03-17T04:35:09;2.80;;;2.43;;
15256;SDS011;7731;50.720;6.912;2024-03-17T04:37:38;3.07;;;1.90;;
15256;SDS011;7731;50.720;6.912;2024-03-17T04:40:08;2.27;;;2.07;;
15256;SDS011;7731;50.720;6.912;2024-03-17T04:42:42;3.07;;;2.50;;
15256;SDS011;7731;50.720;6.912;2024-03-17T04:45:11;2.63;;;2.40;;
15256;SDS011;7731;50.720;6.912;2024-03-17T04:47:40;3.07;;;2.57;;
15256;SDS011;7731;50.720;6.912;2024-03-17T04:50:09;4.90;;;2.30;;
15256;SDS011;7731;50.720;6.912;2024-03-17T04:52:39;4.17;;;2.50;;
15256;SDS011;7731;50.720;6.912;2024-03-17T04:55:08;3.00;;;2.07;;
15256;SDS011;7731;50.720;6.912;2024-03-17T04:57:37;2.40;;;2.20;;
15256;SDS011;7731;50.720;6.912;2024-03-17T05:00:10;3.50;;;2.47;;
15256;SDS011;7731;50.720;6.912;2024-03-17T05:02:43;2.60;;;2.03;;
15256;SDS011;7731;50.720;6.912;2024-03-17T05:05:13;2.43;;;2.23;;
15256;SDS011;7731;50.720;6.912;2024-03-17T05:07:42;2.53;;;2.27;;
15256;SDS011;7731;50.720;6.912;2024-03-17T05:10:12;2.10;;;2.00;;
15256;SDS011;7731;50.720;6.912;2024-03-17T05:12:41;2.97;;;2.20;;
15256;SDS011;7731;50.720;6.912;2024-03-17T05:15:16;3.70;;;2.57;;
15256;SDS011;7731;50.720;6.912;2024-03-17T05:17:45;3.70;;;3.10;;
15256;SDS011;7731;50.720;6.912;2024-03-17T05:20:14;3.83;;;2.90;;
15256;SDS011;7731;50.720;6.912;2024-03-17T05:22:43;4.07;;;2.50;;
15256;SDS011;7731;50.720;6.912;2024-03-17T05:25:13;2.60;;;2.37;;
15256;SDS011;7731;50.720;6.912;2024-03-17T05:27:42;2.63;;;2.30;;
15256;SDS011;7731;50.720;6.912;2024-03-17T05:30:12;2.50;;;2.30;;
15256;SDS011;7731;50.720;6.912;2024-03-17T05:32:46;3.43;;;2.53;;
15256;SDS011;7731;50.720;6.912;2024-03-17T05:35:17;2.67;;;2.33;;
15256;SDS011;7731;50.720;6.912;2024-03-17T05:37:46;2.63;;;2.43;;
15256;SDS011;7731;50.720;6.912;2024-03-17T05:40:17;3.10;;;2.50;;
15256;SDS011;7731;50.720;6.912;2024-03-17T05:42:46;2.50;;;2.20;;
15256;SDS011;7731;50.720;6.912;2024-03-17T05:45:19;2.63;;;2.40;;
15256;SDS011;7731;50.720;6.912;2024-03-17T05:47:51;2.67;;;2.10;;
15256;SDS011;7731;50.720;6.912;2024-03-17T05:50:21;4.57;;;2.40;;
15256;SDS011;7731;50.720;6.912;2024-03-17T05:52:52;3.57;;;2.50;;
15256;SDS011;7731;50.720;6.912;2024-03-17T05:55:22;4.07;;;2.47;;
15256;SDS011;7731;50.720;6.912;2024-03-17T05:57:51;2.93;;;2.47;;
15256;SDS011;7731;50.720;6.912;2024-03-17T06:00:25;2.40;;;2.20;;
15256;SDS011;7731;50.720;6.912;2024-03-17T06:02:54;2.97;;;2.20;;
15256;SDS011;7731;50.720;6.912;2024-03-17T06:05:25;2.90;;;2.50;;
15256;SDS011;7731;50.720;6.912;2024-03-17T06:07:54;2.77;;;2.57;;
15256;SDS011;7731;50.720;6.912;2024-03-17T06:10:24;2.97;;;2.57;;
15256;SDS011;7731;50.720;6.912;2024-03-17T06:12:53;2.40;;;2.20;;
15256;SDS011;7731;50.720;6.912;2024-03-17T06:15:27;3.20;;;2.30;;
15256;SDS011;7731;50.720;6.912;2024-03-17T06:17:57;3.70;;;2.57;;
15256;SDS011;7731;50.720;6.912;2024-03-17T06:20:29;5.17;;;2.17;;
15256;SDS011;7731;50.720;6.912;2024-03-17T06:22:59;5.63;;;2.30;;
15256;SDS011;7731;50.720;6.912;2024-03-17T06:25:28;3.63;;;2.40;;
15256;SDS011;7731;50.720;6.912;2024-03-17T06:27:57;3.37;;;2.40;;
15256;SDS011;7731;50.720;6.912;2024-03-17T06:30:31;2.53;;;2.33;;
15256;SDS011;7731;50.720;6.912;2024-03-17T06:33:01;2.50;;;2.30;;
15256;SDS011;7731;50.720;6.912;2024-03-17T06:35:32;3.23;;;2.53;;
15256;SDS011;7731;50.720;6.912;2024-03-17T06:38:01;2.40;;;2.20;;
15256;SDS011;7731;50.720;6.912;2024-03-17T06:40:30;3.87;;;2.70;;
15256;SDS011;7731;50.720;6.912;2024-03-17T06:42:59;2.97;;;2.60;;
15256;SDS011;7731;50.720;6.912;2024-03-17T06:45:32;2.47;;;2.27;;
15256;SDS011;7731;50.720;6.912;2024-03-17T06:48:02;3.13;;;2.50;;
15256;SDS011;7731;50.720;6.912;2024-03-17T06:50:32;2.77;;;2.57;;
15256;SDS011;7731;50.720;6.912;2024-03-17T06:53:01;2.70;;;2.50;;
15256;SDS011;7731;50.720;6.912;2024-03-17T06:55:30;2.63;;;2.43;;
15256;SDS011;7731;50.720;6.912;2024-03-17T06:57:59;2.47;;;2.27;;
15256;SDS011;7731;50.720;6.912;2024-03-17T07:00:32;2.60;;;2.40;;
15256;SDS011;7731;50.720;6.912;2024-03-17T07:03:01;3.70;;;2.50;;
15256;SDS011;7731;50.720;6.912;2024-03-17T07:05:32;3.20;;;2.27;;
15256;SDS011;7731;50.720;6.912;2024-03-17T07:08:02;3.73;;;2.40;;
15256;SDS011;7731;50.720;6.912;2024-03-17T07:10:34;3.23;;;2.87;;
15256;SDS011;7731;50.720;6.912;2024-03-17T07:13:03;2.97;;;2.60;;
15256;SDS011;7731;50.720;6.912;2024-03-17T07:15:35;2.90;;;2.60;;
15256;SDS011;7731;50.720;6.912;2024-03-17T07:18:05;3.40;;;2.70;;
15256;SDS011;7731;50.720;6.912;2024-03-17T07:20:34;4.17;;;2.63;;
15256;SDS011;7731;50.720;6.912;2024-03-17T07:23:05;3.53;;;2.40;;
15256;SDS011;7731;50.720;6.912;2024-03-17T07:25:36;3.80;;;2.47;;
15256;SDS011;7731;50.720;6.912;2024-03-17T07:28:05;2.90;;;2.40;;
15256;SDS011;7731;50.720;6.912;2024-03-17T07:30:37;2.60;;;2.40;;
15256;SDS011;7731;50.720;6.912;2024-03-17T07:33:24;2.50;;;2.30;;
15256;SDS011;7731;50.720;6.912;2024-03-17T07:35:58;2.70;;;2.50;;
15256;SDS011;7731;50.720;6.912;2024-03-17T07:38:30;2.58;;;2.15;;
15256;SDS011;7731;50.720;6.912;2024-03-17T07:41:01;3.13;;;2.20;;
15256;SDS011;7731;50.720;6.912;2024-03-17T07:43:37;2.45;;;2.22;;
15256;SDS011;7731;50.720;6.912;2024-03-17T07:46:10;2.88;;;2.58;;
15256;SDS011;7731;50.720;6.912;2024-03-17T07:48:41;2.38;;;2.17;;
15256;SDS011;7731;50.720;6.912;2024-03-17T07:51:13;4.35;;;1.92;;
15256;SDS011;7731;50.720;6.912;2024-03-17T07:53:45;2.33;;;1.83;;
15256;SDS011;7731;50.720;6.912;2024-03-17T07:56:17;1.95;;;1.75;;
15256;SDS011;7731;50.720;6.912;2024-03-17T07:58:47;3.13;;;1.60;;
15256;SDS011;7731;50.720;6.912;2024-03-17T08:01:19;2.75;;;1.98;;
15256;SDS011;7731;50.720;6.912;2024-03-17T08:03:48;2.28;;;1.90;;
15256;SDS011;7731;50.720;6.912;2024-03-17T08:06:21;4.10;;;2.00;;
15256;SDS011;7731;50.720;6.912;2024-03-17T08:08:50;1.73;;;1.63;;
15256;SDS011;7731;50.720;6.912;2024-03-17T08:11:20;3.03;;;1.80;;
15256;SDS011;7731;50.720;6.912;2024-03-17T08:13:50;2.97;;;1.88;;
15256;SDS011;7731;50.720;6.912;2024-03-17T08:16:22;2.15;;;1.90;;
15256;SDS011;7731;50.720;6.912;2024-03-17T08:18:51;2.47;;;2.20;;
15256;SDS011;7731;50.720;6.912;2024-03-17T08:21:20;1.90;;;1.60;;
15256;SDS011;7731;50.720;6.912;2024-03-17T08:23:49;2.20;;;2.00;;
15256;SDS011;7731;50.720;6.912;2024-03-17T08:26:19;2.25;;;1.70;;
15256;SDS011;7731;50.720;6.912;2024-03-17T08:28:48;2.40;;;1.98;;
15256;SDS011;7731;50.720;6.912;2024-03-17T08:31:17;2.92;;;1.75;;
15256;SDS011;7731;50.720;6.912;2024-03-17T08:33:51;3.05;;;1.90;;
15256;SDS011;7731;50.720;6.912;2024-03-17T08:36:20;3.38;;;2.03;;
15256;SDS011;7731;50.720;6.912;2024-03-17T08:38:50;2.47;;;2.00;;
15256;SDS011;7731;50.720;6.912;2024-03-17T08:41:20;5.07;;;2.55;;
15256;SDS011;7731;50.720;6.912;2024-03-17T08:43:49;3.15;;;2.17;;
15256;SDS011;7731;50.720;6.912;2024-03-17T08:46:20;3.85;;;1.95;;
15256;SDS011;7731;50.720;6.912;2024-03-17T08:48:54;2.72;;;1.73;;
15256;SDS011;7731;50.720;6.912;2024-03-17T08:51:23;3.00;;;2.00;;
15256;SDS011;7731;50.720;6.912;2024-03-17T08:53:52;3.38;;;2.00;;
15256;SDS011;7731;50.720;6.912;2024-03-17T08:56:25;2.85;;;2.45;;
15256;SDS011;7731;50.720;6.912;2024-03-17T08:58:54;2.42;;;2.13;;
15256;SDS011;7731;50.720;6.912;2024-03-17T09:01:23;2.60;;;1.67;;
15256;SDS011;7731;50.720;6.912;2024-03-17T09:03:55;2.80;;;2.08;;
15256;SDS011;7731;50.720;6.912;2024-03-17T09:06:26;2.47;;;2.05;;
15256;SDS011;7731;50.720;6.912;2024-03-17T09:08:57;2.65;;;2.00;;
15256;SDS011;7731;50.720;6.912;2024-03-17T09:11:28;2.58;;;2.13;;
15256;SDS011;7731;50.720;6.912;2024-03-17T09:13:57;2.33;;;2.13;;
15256;SDS011;7731;50.720;6.912;2024-03-17T09:16:26;2.83;;;2.20;;
15256;SDS011;7731;50.720;6.912;2024-03-17T09:19:01;3.45;;;1.98;;
15256;SDS011;7731;50.720;6.912;2024-03-17T09:21:31;3.05;;;2.30;;
15256;SDS011;7731;50.720;6.912;2024-03-17T09:24:01;3.88;;;2.28;;
15256;SDS011;7731;50.720;6.912;2024-03-17T09:26:30;4.05;;;2.08;;
15256;SDS011;7731;50.720;6.912;2024-03-17T09:29:00;2.50;;;2.20;;
15256;SDS011;7731;50.720;6.912;2024-03-17T09:31:29;2.45;;;1.80;;
15256;SDS011;7731;50.720;6.912;2024-03-17T09:34:07;6.75;;;2.10;;
15256;SDS011;7731;50.720;6.912;2024-03-17T09:36:36;3.85;;;2.03;;
15256;SDS011;7731;50.720;6.912;2024-03-17T09:39:09;4.45;;;2.47;;
15256;SDS011;7731;50.720;6.912;2024-03-17T09:41:39;3.65;;;2.30;;
15256;SDS011;7731;50.720;6.912;2024-03-17T09:44:11;2.83;;;2.58;;
15256;SDS011;7731;50.720;6.912;2024-03-17T09:46:41;2.95;;;2.15;;
15256;SDS011;7731;50.720;6.912;2024-03-17T09:49:15;3.00;;;1.98;;
15256;SDS011;7731;50.720;6.912;2024-03-17T09:51:45;2.58;;;2.22;;
15256;SDS011;7731;50.720;6.912;2024-03-17T09:54:22;3.30;;;2.03;;
15256;SDS011;7731;50.720;6.912;2024-03-17T09:56:51;3.58;;;2.55;;
15256;SDS011;7731;50.720;6.912;2024-03-17T09:59:20;2.45;;;2.25;;
15256;SDS011;7731;50.720;6.912;2024-03-17T10:01:50;3.85;;;2.67;;
15256;SDS011;7731;50.720;6.912;2024-03-17T10:04:33;3.42;;;2.40;;
15256;SDS011;7731;50.720;6.912;2024-03-17T10:07:02;2.63;;;2.38;;
15256;SDS011;7731;50.720;6.912;2024-03-17T10:09:32;4.82;;;2.50;;
15256;SDS011;7731;50.720;6.912;2024-03-17T10:12:01;3.75;;;2.60;;
15256;SDS011;7731;50.720;6.912;2024-03-17T10:14:32;3.13;;;2.45;;
15256;SDS011;7731;50.720;6.912;2024-03-17T10:17:01;3.55;;;2.60;;
15256;SDS011;7731;50.720;6.912;2024-03-17T10:19:40;3.42;;;2.50;;
15256;SDS011;7731;50.720;6.912;2024-03-17T10:22:11;2.83;;;2.53;;
15256;SDS011;7731;50.720;6.912;2024-03-17T10:24:41;2.97;;;2.40;;
15256;SDS011;7731;50.720;6.912;2024-03-17T10:27:10;3.90;;;2.58;;
15256;SDS011;7731;50.720;6.912;2024-03-17T10:29:40;4.60;;;2.80;;
15256;SDS011;7731;50.720;6.912;2024-03-17T10:32:13;4.35;;;2.45;;
15256;SDS011;7731;50.720;6.912;2024-03-17T10:34:47;3.90;;;2.80;;
15256;SDS011;7731;50.720;6.912;2024-03-17T10:37:17;3.22;;;2.80;;
15256;SDS011;7731;50.720;6.912;2024-03-17T10:39:51;3.50;;;2.55;;
15256;SDS011;7731;50.720;6.912;2024-03-17T10:42:25;3.17;;;2.88;;
15256;SDS011;7731;50.720;6.912;2024-03-17T10:44:58;4.15;;;2.50;;
15256;SDS011;7731;50.720;6.912;2024-03-17T10:47:28;3.75;;;3.03;;
15256;SDS011;7731;50.720;6.912;2024-03-17T10:50:00;4.57;;;2.50;;
15256;SDS011;7731;50.720;6.912;2024-03-17T10:52:35;3.70;;;2.72;;
15256;SDS011;7731;50.720;6.912;2024-03-17T10:55:20;3.13;;;2.80;;
15256;SDS011;7731;50.720;6.912;2024-03-17T10:57:51;3.78;;;3.08;;
15256;SDS011;7731;50.720;6.912;2024-03-17T11:00:23;4.00;;;3.10;;
15256;SDS011;7731;50.720;6.912;2024-03-17T11:02:57;4.93;;;2.70;;
15256;SDS011;7731;50.720;6.912;2024-03-17T11:05:29;7.28;;;3.35;;
15256;SDS011;7731;50.720;6.912;2024-03-17T11:07:59;4.15;;;2.75;;
15256;SDS011;7731;50.720;6.912;2024-03-17T11:10:29;3.63;;;2.80;;
15256;SDS011;7731;50.720;6.912;2024-03-17T11:13:04;5.55;;;3.17;;
15256;SDS011;7731;50.720;6.912;2024-03-17T11:15:58;3.63;;;3.17;;
15256;SDS011;7731;50.720;6.912;2024-03-17T11:18:34;5.25;;;3.00;;
15256;SDS011;7731;50.720;6.912;2024-03-17T11:21:06;5.85;;;3.50;;
15256;SDS011;7731;50.720;6.912;2024-03-17T11:24:00;4.28;;;3.13;;
15256;SDS011;7731;50.720;6.912;2024-03-17T11:26:33;4.28;;;3.88;;
15256;SDS011;7731;50.720;6.912;2024-03-17T11:29:03;5.00;;;3.53;;
15256;SDS011;7731;50.720;6.912;2024-03-17T11:31:35;5.18;;;3.90;;
15256;SDS011;7731;50.720;6.912;2024-03-17T11:37:05;4.53;;;3.72;;
15256;SDS011;7731;50.720;6.912;2024-03-17T11:39:49;4.55;;;3.47;;
15256;SDS011;7731;50.720;6.912;2024-03-17T11:42:26;6.68;;;3.75;;
15256;SDS011;7731;50.720;6.912;2024-03-17T11:44:58;4.72;;;4.20;;
15256;SDS011;7731;50.720;6.912;2024-03-17T11:47:41;4.07;;;3.42;;
15256;SDS011;7731;50.720;6.912;2024-03-17T11:50:09;6.28;;;3.50;;
15256;SDS011;7731;50.720;6.912;2024-03-17T11:52:43;4.72;;;3.80;;
15256;SDS011;7731;50.720;6.912;2024-03-17T11:55:17;4.63;;;3.95;;
15256;SDS011;7731;50.720;6.912;2024-03-17T11:57:45;5.03;;;3.78;;
15256;SDS011;7731;50.720;6.912;2024-03-17T12:00:19;3.50;;;3.10;;
15256;SDS011;7731;50.720;6.912;2024-03-17T12:02:49;8.05;;;4.03;;
15256;SDS011;7731;50.720;6.912;2024-03-17T12:05:18;7.97;;;4.05;;
15256;SDS011;7731;50.720;6.912;2024-03-17T12:07:52;7.10;;;4.10;;
15256;SDS011;7731;50.720;6.912;2024-03-17T12:10:20;5.68;;;4.15;;
15256;SDS011;7731;50.720;6.912;2024-03-17T12:12:49;5.18;;;3.92;;
15256;SDS011;7731;50.720;6.912;2024-03-17T12:15:17;5.25;;;3.85;;
15256;SDS011;7731;50.720;6.912;2024-03-17T12:17:52;5.30;;;4.00;;
15256;SDS011;7731;50.720;6.912;2024-03-17T12:20:20;4.60;;;3.63;;
15256;SDS011;7731;50.720;6.912;2024-03-17T12:22:52;4.22;;;3.03;;
15256;SDS011;7731;50.720;6.912;2024-03-17T12:25:22;4.38;;;3.40;;
15256;SDS011;7731;50.720;6.912;2024-03-17T12:27:52;7.07;;;4.10;;
15256;SDS011;7731;50.720;6.912;2024-03-17T12:30:21;6.78;;;3.70;;
15256;SDS011;7731;50.720;6.912;2024-03-17T12:32:48;5.78;;;3.40;;
15256;SDS011;7731;50.720;6.912;2024-03-17T12:35:18;5.30;;;3.88;;
15256;SDS011;7731;50.720;6.912;2024-03-17T12:37:47;5.07;;;3.90;;
15256;SDS011;7731;50.720;6.912;2024-03-17T12:40:20;4.10;;;3.40;;
15256;SDS011;7731;50.720;6.912;2024-03-17T12:42:49;5.63;;;3.90;;
15256;SDS011;7731;50.720;6.912;2024-03-17T12:45:19;5.40;;;3.65;;
15256;SDS011;7731;50.720;6.912;2024-03-17T12:47:47;5.10;;;4.15;;
15256;SDS011;7731;50.720;6.912;2024-03-17T12:50:18;6.07;;;4.00;;
15256;SDS011;7731;50.720;6.912;2024-03-17T12:52:52;6.15;;;4.50;;
15256;SDS011;7731;50.720;6.912;2024-03-17T12:55:26;3.83;;;3.40;;
15256;SDS011;7731;50.720;6.912;2024-03-17T12:58:08;6.22;;;3.88;;
15256;SDS011;7731;50.720;6.912;2024-03-17T13:00:56;6.00;;;4.60;;
15256;SDS011;7731;50.720;6.912;2024-03-17T13:03:28;5.93;;;4.20;;
15256;SDS011;7731;50.720;6.912;2024-03-17T13:06:00;4.22;;;3.63;;
15256;SDS011;7731;50.720;6.912;2024-03-17T13:08:31;5.82;;;3.80;;
15256;SDS011;7731;50.720;6.912;2024-03-17T13:11:03;4.57;;;3.72;;
15256;SDS011;7731;50.720;6.912;2024-03-17T13:13:37;5.43;;;3.72;;
15256;SDS011;7731;50.720;6.912;2024-03-17T13:16:07;4.47;;;3.70;;
15256;SDS011;7731;50.720;6.912;2024-03-17T13:18:40;5.78;;;3.85;;
15256;SDS011;7731;50.720;6.912;2024-03-17T13:21:09;4.80;;;3.83;;
15256;SDS011;7731;50.720;6.912;2024-03-17T13:23:39;4.18;;;3.67;;
15256;SDS011;7731;50.720;6.912;2024-03-17T13:26:11;4.90;;;3.60;;
15256;SDS011;7731;50.720;6.912;2024-03-17T13:28:40;5.07;;;3.65;;
15256;SDS011;7731;50.720;6.912;2024-03-17T13:31:09;6.45;;;3.97;;
15256;SDS011;7731;50.720;6.912;2024-03-17T13:33:38;3.83;;;3.42;;
15256;SDS011;7731;50.720;6.912;2024-03-17T13:36:07;5.05;;;3.92;;
15256;SDS011;7731;50.720;6.912;2024-03-17T13:38:37;6.50;;;3.78;;
15256;SDS011;7731;50.720;6.912;2024-03-17T13:41:06;4.38;;;3.40;;
15256;SDS011;7731;50.720;6.912;2024-03-17T13:43:39;4.03;;;3.47;;
15256;SDS011;7731;50.720;6.912;2024-03-17T13:46:09;5.68;;;3.60;;
15256;SDS011;7731;50.720;6.912;2024-03-17T13:48:39;4.50;;;3.58;;
15256;SDS011;7731;50.720;6.912;2024-03-17T13:51:07;3.90;;;3.35;;
15256;SDS011;7731;50.720;6.912;2024-03-17T13:53:37;3.83;;;3.20;;
15256;SDS011;7731;50.720;6.912;2024-03-17T13:56:10;4.60;;;3.47;;
15256;SDS011;7731;50.720;6.912;2024-03-17T13:58:41;5.13;;;3.50;;
15256;SDS011;7731;50.720;6.912;2024-03-17T14:01:11;4.93;;;3.42;;
15256;SDS011;7731;50.720;6.912;2024-03-17T14:03:40;3.58;;;3.28;;
15256;SDS011;7731;50.720;6.912;2024-03-17T14:06:09;4.40;;;3.40;;
15256;SDS011;7731;50.720;6.912;2024-03-17T14:08:38;4.45;;;3.38;;
15256;SDS011;7731;50.720;6.912;2024-03-17T14:11:07;4.15;;;3.20;;
15256;SDS011;7731;50.720;6.912;2024-03-17T14:13:37;3.80;;;2.97;;
15256;SDS011;7731;50.720;6.912;2024-03-17T14:16:09;6.13;;;3.72;;
15256;SDS011;7731;50.720;6.912;2024-03-17T14:18:38;4.07;;;3.10;;
15256;SDS011;7731;50.720;6.912;2024-03-17T14:21:07;4.88;;;3.63;;
15256;SDS011;7731;50.720;6.912;2024-03-17T14:23:36;6.13;;;3.42;;
15256;SDS011;7731;50.720;6.912;2024-03-17T14:26:07;4.38;;;3.30;;
15256;SDS011;7731;50.720;6.912;2024-03-17T14:28:39;3.80;;;3.40;;
15256;SDS011;7731;50.720;6.912;2024-03-17T14:31:11;4.95;;;3.50;;
15256;SDS011;7731;50.720;6.912;2024-03-17T14:33:40;6.43;;;2.97;;
15256;SDS011;7731;50.720;6.912;2024-03-17T14:36:09;5.05;;;2.88;;
15256;SDS011;7731;50.720;6.912;2024-03-17T14:38:38;5.63;;;2.83;;
15256;SDS011;7731;50.720;6.912;2024-03-17T14:41:08;3.95;;;2.72;;
15256;SDS011;7731;50.720;6.912;2024-03-17T14:43:41;4.03;;;2.97;;
15256;SDS011;7731;50.720;6.912;2024-03-17T14:46:14;5.07;;;3.08;;
15256;SDS011;7731;50.720;6.912;2024-03-17T14:48:46;4.90;;;3.60;;
15256;SDS011;7731;50.720;6.912;2024-03-17T14:51:16;6.30;;;3.30;;
15256;SDS011;7731;50.720;6.912;2024-03-17T14:53:47;4.38;;;3.47;;
15256;SDS011;7731;50.720;6.912;2024-03-17T14:56:18;6.32;;;3.50;;
15256;SDS011;7731;50.720;6.912;2024-03-17T14:58:48;5.78;;;3.45;;
15256;SDS011;7731;50.720;6.912;2024-03-17T15:01:20;5.38;;;4.03;;
15256;SDS011;7731;50.720;6.912;2024-03-17T15:03:49;6.85;;;4.00;;
15256;SDS011;7731;50.720;6.912;2024-03-17T15:06:20;5.10;;;4.03;;
15256;SDS011;7731;50.720;6.912;2024-03-17T15:08:50;3.60;;;3.30;;
15256;SDS011;7731;50.720;6.912;2024-03-17T15:11:20;5.28;;;3.58;;
15256;SDS011;7731;50.720;6.912;2024-03-17T15:13:49;4.78;;;3.90;;
15256;SDS011;7731;50.720;6.912;2024-03-17T15:16:23;5.15;;;3.95;;
15256;SDS011;7731;50.720;6.912;2024-03-17T15:18:52;5.20;;;4.68;;
15256;SDS011;7731;50.720;6.912;2024-03-17T15:21:21;4.85;;;4.38;;
15256;SDS011;7731;50.720;6.912;2024-03-17T15:23:50;6.22;;;4.30;;